M I D A S
Marine Information and Data Acquisition System
Tripno 2147 of the Zeeleeuw from 2011-07-18 07:07:04 to 2011-07-18 13:53:03
Back to CruiseResearch ActivitiesStationsMapUnderway DataData graphs

EquipmentUnitsComments
TimeDGPSUTC
LatitudeDGPSDM.mWGS84
LongitudeDGPSDM.mWGS84
SpeedMeteo Stationm/sRelative wind speed
DirectionMeteo StationdegRelative wind direction
TemperatureMeteo Stationdeg CelciusAir temperature
PressureMeteo StationPaAtmospheric pressure
HumidityMeteo Station%Relative humidity
Missing or incorrect values are displayed as -999
Metereological data collected by the RV Zeeleeuw from 2011-07-18 06:54:56 to 2011-07-18 15:36:40
                                                                                    Next 1000 lines
Time Latitude Longitude Speed Direction Temperature Pressure Humidity
2011-07-18 06:55:08 51°13.637 2°56.016 5.4 28 13.9 99700 46
2011-07-18 06:55:12 51°13.638 2°56.013 4.6 27 13.9 99700 46
2011-07-18 06:55:16 51°13.639 2°56.01 7.7 27 13.9 99700 47
2011-07-18 06:55:23 51°13.641 2°56.003 5.3 26 13.9 99700 47
2011-07-18 06:55:28 51°13.642 2°55.997 7.2 28 13.9 99700 46
2011-07-18 06:55:34 51°13.645 2°55.99 5.7 42 13.9 99700 46
2011-07-18 06:55:40 51°13.647 2°55.981 4.9 42 13.9 99700 47
2011-07-18 06:55:45 51°13.649 2°55.974 3.2 22 13.9 99700 47
2011-07-18 06:55:51 51°13.652 2°55.965 3.5 27 13.9 99690 47
2011-07-18 06:55:56 51°13.654 2°55.957 5.4 33 13.9 99690 47
2011-07-18 06:56:00 51°13.655 2°55.95 3.8 27 13.9 99700 46
2011-07-18 06:56:06 51°13.658 2°55.941 3 55 13.9 99700 46
2011-07-18 06:56:11 51°13.659 2°55.933 3.8 25 13.9 99700 48
2011-07-18 06:56:16 51°13.661 2°55.925 2.8 35 13.9 99700 48
2011-07-18 06:56:20 51°13.662 2°55.918 3.9 32 13.9 99700 46
2011-07-18 06:56:26 51°13.665 2°55.908 5 41 13.9 99700 46
2011-07-18 06:56:31 51°13.666 2°55.901 6.5 29 13.9 99700 47
2011-07-18 06:56:36 51°13.668 2°55.892 6.6 33 13.9 99700 47
2011-07-18 06:56:40 51°13.67 2°55.886 6.3 19 13.9 99700 47
2011-07-18 06:56:46 51°13.672 2°55.876 5.4 40 13.9 99700 47
2011-07-18 06:56:51 51°13.674 2°55.868 6.8 36 13.9 99700 48
2011-07-18 06:56:56 51°13.676 2°55.86 7.2 32 13.9 99700 48
2011-07-18 06:57:00 51°13.677 2°55.853 6.3 38 13.9 99700 47
2011-07-18 06:57:06 51°13.679 2°55.844 4.4 25 13.9 99700 47
2011-07-18 06:57:11 51°13.681 2°55.836 3.8 25 13.9 99700 47
2011-07-18 06:57:16 51°13.683 2°55.829 5.1 33 13.9 99700 47
2011-07-18 06:57:21 51°13.684 2°55.821 4.5 44 13.9 99700 46
2011-07-18 06:57:26 51°13.685 2°55.814 6.6 52 13.9 99700 46
2011-07-18 06:57:31 51°13.686 2°55.806 6.5 25 13.9 99700 46
2011-07-18 06:57:36 51°13.687 2°55.799 7.4 27 13.9 99700 46
2011-07-18 06:57:40 51°13.687 2°55.794 6.3 18 13.9 99700 47
2011-07-18 06:57:46 51°13.689 2°55.785 6.9 42 13.9 99700 47
2011-07-18 06:57:51 51°13.689 2°55.779 6.4 21 13.9 99700 47
2011-07-18 06:57:56 51°13.69 2°55.774 7 38 13.9 99700 47
2011-07-18 06:58:00 51°13.691 2°55.771 5.3 33 13.9 99690 47
2011-07-18 06:58:06 51°13.691 2°55.768 6.5 53 13.9 99690 47
2011-07-18 06:58:11 51°13.692 2°55.767 6.3 45 13.9 99690 47
2011-07-18 06:58:16 51°13.692 2°55.767 2 39 13.9 99690 47
2011-07-18 06:58:20 51°13.693 2°55.767 7 26 13.9 99700 47
2011-07-18 06:58:26 51°13.694 2°55.768 8 58 13.9 99700 47
2011-07-18 06:58:31 51°13.695 2°55.769 5.7 43 13.9 99700 47
2011-07-18 06:58:36 51°13.696 2°55.77 4.5 50 13.9 99700 47
2011-07-18 06:58:40 51°13.697 2°55.77 4.9 20 13.9 99700 46
2011-07-18 06:58:46 51°13.698 2°55.771 3.7 28 13.9 99700 46
2011-07-18 06:58:51 51°13.699 2°55.771 3.7 38 13.8 99700 47
2011-07-18 06:58:56 51°13.7 2°55.771 4.4 44 13.8 99700 47
2011-07-18 06:59:00 51°13.7 2°55.77 6 44 13.8 99710 47
2011-07-18 06:59:06 51°13.7 2°55.769 5.1 55 13.8 99710 47
2011-07-18 06:59:11 51°13.699 2°55.768 4.4 27 13.8 99700 47
2011-07-18 06:59:16 51°13.698 2°55.766 3.6 57 13.8 99700 47
2011-07-18 06:59:20 51°13.697 2°55.764 4.9 42 13.9 99700 46
2011-07-18 06:59:26 51°13.695 2°55.762 4.7 53 13.9 99700 46
2011-07-18 06:59:31 51°13.693 2°55.76 5 27 13.9 99700 47
2011-07-18 06:59:36 51°13.692 2°55.758 2.4 51 13.9 99700 47
2011-07-18 06:59:40 51°13.691 2°55.757 2.8 22 13.9 99710 48
2011-07-18 06:59:46 51°13.69 2°55.756 1.9 59 13.9 99710 48
2011-07-18 06:59:51 51°13.691 2°55.756 3.2 20 13.9 99700 48
2011-07-18 06:59:56 51°13.692 2°55.756 1.2 52 13.9 99700 48
2011-07-18 07:00:00 51°13.694 2°55.756 2 26 13.9 99710 45
2011-07-18 07:00:06 51°13.698 2°55.755 2 62 13.9 99710 45
2011-07-18 07:00:11 51°13.702 2°55.753 4.5 22 13.9 99710 48
2011-07-18 07:00:16 51°13.707 2°55.751 2.7 305 13.9 99710 48
2011-07-18 07:00:20 51°13.712 2°55.749 3.8 251 13.9 99710 46
2011-07-18 07:00:26 51°13.72 2°55.743 1.6 56 13.9 99710 46
2011-07-18 07:00:31 51°13.727 2°55.738 4.2 318 13.9 99710 48
2011-07-18 07:00:36 51°13.734 2°55.732 0.9 327 13.9 99710 48
2011-07-18 07:00:40 51°13.74 2°55.726 1 333 13.9 99710 48
2011-07-18 07:00:46 51°13.749 2°55.717 0.1 306 13.9 99710 48
2011-07-18 07:00:51 51°13.758 2°55.709 0.1 26 13.9 99710 46
2011-07-18 07:00:56 51°13.766 2°55.701 -999 304 13.9 99710 46
2011-07-18 07:01:00 51°13.773 2°55.694 2.4 26 13.9 99710 47
2011-07-18 07:01:06 51°13.784 2°55.683 3.3 309 13.9 99710 47
2011-07-18 07:01:11 51°13.793 2°55.674 4.9 248 13.9 99700 47
2011-07-18 07:01:16 51°13.803 2°55.665 3.4 308 13.9 99700 47
2011-07-18 07:01:20 51°13.81 2°55.658 2.1 260 13.9 99700 47
2011-07-18 07:01:25 51°13.82 2°55.65 0.3 307 13.9 99700 47
2011-07-18 07:01:31 51°13.832 2°55.639 1.3 27 13.9 99700 48
2011-07-18 07:01:36 51°13.843 2°55.631 4.4 309 13.9 99700 48
2011-07-18 07:01:40 51°13.851 2°55.624 3.1 250 13.9 99710 48
2011-07-18 07:01:46 51°13.864 2°55.614 0.6 307 13.9 99710 48
2011-07-18 07:01:51 51°13.875 2°55.605 0.1 247 13.9 99710 48
2011-07-18 07:01:56 51°13.885 2°55.597 2.6 303 13.9 99710 48
2011-07-18 07:02:01 51°13.896 2°55.588 4.8 249 14 99710 48
2011-07-18 07:02:06 51°13.907 2°55.58 3.3 307 14 99710 48
2011-07-18 07:02:11 51°13.918 2°55.572 1.6 20 13.9 99710 47
2011-07-18 07:02:16 51°13.929 2°55.564 2.7 304 13.9 99710 47
2011-07-18 07:02:20 51°13.938 2°55.558 3.7 18 14 99700 47
2011-07-18 07:02:26 51°13.952 2°55.548 2.8 309 14 99700 47
2011-07-18 07:02:31 51°13.963 2°55.541 0.7 23 13.9 99710 46
2011-07-18 07:02:36 51°13.975 2°55.532 0.1 301 13.9 99710 46
2011-07-18 07:02:40 51°13.984 2°55.526 2 25 13.9 99710 46
2011-07-18 07:02:46 51°13.997 2°55.516 4.9 305 13.9 99710 46
2011-07-18 07:02:51 51°14.009 2°55.508 6.9 255 14 99700 47
2011-07-18 07:02:56 51°14.02 2°55.499 5.8 306 14 99700 47
2011-07-18 07:03:00 51°14.029 2°55.493 3.7 268 14 99700 47
2011-07-18 07:03:05 51°14.041 2°55.484 1.5 302 14 99700 47
2011-07-18 07:03:11 51°14.055 2°55.475 0.9 270 14 99700 46
2011-07-18 07:03:16 51°14.066 2°55.467 3.3 302 14 99700 46
2011-07-18 07:03:20 51°14.075 2°55.461 2.6 251 14 99710 48
2011-07-18 07:03:26 51°14.089 2°55.451 0.2 306 14 99710 48
2011-07-18 07:03:31 51°14.101 2°55.443 1.6 27 14 99710 46
2011-07-18 07:03:36 51°14.112 2°55.435 2.1 302 14 99710 46
2011-07-18 07:03:40 51°14.121 2°55.428 1.3 253 14 99700 46
2011-07-18 07:03:46 51°14.136 2°55.418 3.7 304 14 99700 46
2011-07-18 07:03:51 51°14.147 2°55.409 0.8 29 14 99710 48
2011-07-18 07:03:56 51°14.158 2°55.399 3.7 309 14 99710 48
2011-07-18 07:04:01 51°14.17 2°55.39 1.8 28 14 99700 47
2011-07-18 07:04:06 51°14.182 2°55.38 3.9 305 14 99700 47
2011-07-18 07:04:11 51°14.193 2°55.369 1.8 27 14 99710 47
2011-07-18 07:04:16 51°14.204 2°55.358 1.8 310 14 99710 47
2011-07-18 07:04:21 51°14.215 2°55.348 1.1 25 14 99710 48
2011-07-18 07:04:26 51°14.226 2°55.336 4 303 14 99710 48
2011-07-18 07:04:31 51°14.237 2°55.325 3 327 14 99700 46
2011-07-18 07:04:36 51°14.25 2°55.315 3.6 302 14 99700 46
2011-07-18 07:04:40 51°14.259 2°55.307 5.3 21 14 99700 46
2011-07-18 07:04:46 51°14.273 2°55.293 4.6 302 14 99700 46
2011-07-18 07:04:51 51°14.285 2°55.281 4 27 14 99700 46
2011-07-18 07:04:56 51°14.296 2°55.269 5.9 302 14 99700 46
2011-07-18 07:05:00 51°14.304 2°55.259 4.6 22 14 99700 46
2011-07-18 07:05:04 51°14.314 2°55.249 5.5 307 14 99700 46
2011-07-18 07:05:10 51°14.328 2°55.234 5.2 25 14 99710 48
2011-07-18 07:05:15 51°14.34 2°55.221 6.4 303 14 99710 48
2011-07-18 07:05:20 51°14.351 2°55.209 8.1 21 14 99700 46
2011-07-18 07:05:25 51°14.363 2°55.196 7.6 307 14 99700 46
2011-07-18 07:05:30 51°14.374 2°55.182 6.9 27 14 99700 47
2011-07-18 07:05:35 51°14.386 2°55.17 5.1 305 14 99700 47
2011-07-18 07:05:40 51°14.398 2°55.157 7.1 25 14 99690 47
2011-07-18 07:05:44 51°14.408 2°55.146 6.8 303 14 99690 47
2011-07-18 07:05:49 51°14.42 2°55.133 7.5 27 14 99690 46
2011-07-18 07:05:54 51°14.433 2°55.12 8.5 310 14 99690 46
2011-07-18 07:05:59 51°14.445 2°55.107 8.7 249 14 99690 47
2011-07-18 07:06:04 51°14.458 2°55.094 7.9 302 14 99690 47
2011-07-18 07:06:08 51°14.468 2°55.083 7.2 247 14 99690 47
2011-07-18 07:06:13 51°14.481 2°55.07 7.8 309 14 99690 47
2011-07-18 07:06:18 51°14.494 2°55.056 8.6 25 14 99690 47
2011-07-18 07:06:23 51°14.507 2°55.042 8.1 304 14 99690 47
2011-07-18 07:06:28 51°14.52 2°55.028 10.4 247 14 99680 47
2011-07-18 07:06:32 51°14.53 2°55.016 11 305 14 99680 47
2011-07-18 07:06:37 51°14.542 2°55 10.8 251 14 99700 47
2011-07-18 07:06:43 51°14.557 2°54.98 10.1 306 14 99700 47
2011-07-18 07:06:48 51°14.569 2°54.962 13.3 250 14 99690 47
2011-07-18 07:06:52 51°14.578 2°54.946 12.7 309 14 99690 47
2011-07-18 07:06:56 51°14.587 2°54.93 10.5 19 14 99690 47
2011-07-18 07:07:02 51°14.602 2°54.906 9.5 306 14 99690 47
2011-07-18 07:07:08 51°14.616 2°54.883 10.4 255 14.1 99680 47
2011-07-18 07:07:12 51°14.627 2°54.868 10.8 303 14.1 99680 47
2011-07-18 07:07:16 51°14.637 2°54.853 11.1 251 14.1 99680 48
2011-07-18 07:07:22 51°14.654 2°54.833 10.3 306 14.1 99680 48
2011-07-18 07:07:28 51°14.671 2°54.814 9.1 254 14.1 99690 47
2011-07-18 07:07:32 51°14.683 2°54.802 9 305 14.1 99690 47
2011-07-18 07:07:36 51°14.696 2°54.791 10 255 14.1 99680 47
2011-07-18 07:07:42 51°14.715 2°54.775 10.4 308 14.1 99680 47
2011-07-18 07:07:48 51°14.733 2°54.759 12.4 258 14.1 99700 47
2011-07-18 07:07:52 51°14.746 2°54.75 10.5 309 14.1 99700 47
2011-07-18 07:07:56 51°14.758 2°54.74 10.7 258 14.1 99700 46
2011-07-18 07:08:02 51°14.778 2°54.725 7.8 305 14.1 99700 46
2011-07-18 07:08:08 51°14.797 2°54.71 10.5 254 14.1 99690 48
2011-07-18 07:08:12 51°14.809 2°54.7 8.7 310 14.1 99690 48
2011-07-18 07:08:18 51°14.828 2°54.684 9.3 253 14.1 99700 47
2011-07-18 07:08:23 51°14.843 2°54.67 10.6 304 14.1 99700 47
2011-07-18 07:08:28 51°14.859 2°54.658 10 254 14.1 99710 47
2011-07-18 07:08:32 51°14.871 2°54.647 9.9 306 14.1 99710 47
2011-07-18 07:08:38 51°14.89 2°54.632 7.9 260 14.2 99700 47
2011-07-18 07:08:43 51°14.906 2°54.62 11 310 14.2 99700 47
2011-07-18 07:08:48 51°14.921 2°54.606 13.8 258 14.2 99690 48
2011-07-18 07:08:52 51°14.934 2°54.595 12.6 303 14.2 99690 48
2011-07-18 07:08:57 51°14.949 2°54.582 12.2 257 14.2 99700 47
2011-07-18 07:09:02 51°14.965 2°54.569 12 305 14.2 99700 47
2011-07-18 07:09:08 51°14.983 2°54.553 12.6 261 14.2 99700 47
2011-07-18 07:09:12 51°14.995 2°54.543 12.3 308 14.2 99700 47
2011-07-18 07:09:17 51°15.01 2°54.529 12.1 258 14.2 99690 47
2011-07-18 07:09:22 51°15.026 2°54.516 10.6 307 14.2 99690 47
2011-07-18 07:09:28 51°15.044 2°54.499 5.4 254 14.2 99690 47
2011-07-18 07:09:32 51°15.057 2°54.489 9.7 309 14.2 99690 47
2011-07-18 07:09:37 51°15.072 2°54.476 10.9 258 14.2 99680 47
2011-07-18 07:09:42 51°15.088 2°54.464 11.1 307 14.2 99680 47
2011-07-18 07:09:48 51°15.107 2°54.452 9.2 258 14.3 99680 48
2011-07-18 07:09:52 51°15.12 2°54.444 9 302 14.3 99680 48
2011-07-18 07:09:57 51°15.136 2°54.436 6.4 261 14.3 99690 47
2011-07-18 07:10:02 51°15.153 2°54.429 5.8 310 14.3 99690 47
2011-07-18 07:10:08 51°15.173 2°54.422 5.6 263 14.3 99700 47
2011-07-18 07:10:12 51°15.187 2°54.417 8 301 14.3 99700 47
2011-07-18 07:10:17 51°15.203 2°54.411 7.7 260 14.3 99700 48
2011-07-18 07:10:22 51°15.22 2°54.406 5.7 304 14.3 99700 48
2011-07-18 07:10:28 51°15.24 2°54.401 5.1 267 14.3 99700 48
2011-07-18 07:10:32 51°15.254 2°54.398 6 303 14.3 99700 48
2011-07-18 07:10:37 51°15.271 2°54.396 5.8 265 14.3 99700 46
2011-07-18 07:10:42 51°15.288 2°54.392 7.1 61 14.3 99700 46
2011-07-18 07:10:48 51°15.309 2°54.39 5.2 269 14.2 99710 47
2011-07-18 07:10:52 51°15.323 2°54.386 5.5 301 14.2 99710 47
2011-07-18 07:10:57 51°15.34 2°54.385 6.5 267 14.2 99710 47
2011-07-18 07:11:02 51°15.357 2°54.382 5 310 14.2 99710 47
2011-07-18 07:11:08 51°15.379 2°54.379 5 263 14.2 99700 46
2011-07-18 07:11:12 51°15.392 2°54.376 4 310 14.2 99700 46
2011-07-18 07:11:17 51°15.41 2°54.373 5.4 264 14.2 99700 48
2011-07-18 07:11:22 51°15.427 2°54.37 4.6 308 14.2 99700 48
2011-07-18 07:11:28 51°15.448 2°54.366 5.5 262 14.2 99700 48
2011-07-18 07:11:32 51°15.462 2°54.364 5.3 302 14.2 99700 48
2011-07-18 07:11:37 51°15.48 2°54.361 6 263 14.3 99700 48
2011-07-18 07:11:42 51°15.497 2°54.357 5.9 305 14.3 99700 48
2011-07-18 07:11:48 51°15.518 2°54.354 6.6 263 14.3 99700 48
2011-07-18 07:11:52 51°15.532 2°54.35 6.6 309 14.3 99700 48
2011-07-18 07:11:57 51°15.55 2°54.348 5.9 264 14.3 99690 48
2011-07-18 07:12:02 51°15.567 2°54.342 5.7 303 14.3 99690 48
2011-07-18 07:12:08 51°15.588 2°54.338 7.5 264 14.3 99710 47
2011-07-18 07:12:12 51°15.602 2°54.333 6.1 308 14.3 99710 47
2011-07-18 07:12:17 51°15.619 2°54.329 9.6 258 14.3 99710 48
2011-07-18 07:12:22 51°15.636 2°54.323 8.8 304 14.3 99710 48
2011-07-18 07:12:28 51°15.657 2°54.317 8.7 254 14.3 99690 47
2011-07-18 07:12:32 51°15.67 2°54.311 8.3 305 14.3 99690 47
2011-07-18 07:12:37 51°15.687 2°54.304 7.4 261 14.3 99690 47
2011-07-18 07:12:42 51°15.704 2°54.3 8.3 309 14.3 99690 47
2011-07-18 07:12:48 51°15.725 2°54.294 6.8 268 14.3 99700 48
2011-07-18 07:12:52 51°15.738 2°54.291 6 306 14.3 99700 48
2011-07-18 07:12:57 51°15.755 2°54.287 12.1 266 14.3 99700 48
2011-07-18 07:13:02 51°15.772 2°54.285 7.6 308 14.3 99700 48
2011-07-18 07:13:08 51°15.792 2°54.284 7.6 268 14.3 99700 47
2011-07-18 07:13:12 51°15.806 2°54.285 8.9 57 14.3 99700 47
2011-07-18 07:13:17 51°15.823 2°54.286 7.3 25 14.3 99700 46
2011-07-18 07:13:22 51°15.839 2°54.291 5.8 312 14.3 99700 46
2011-07-18 07:13:28 51°15.86 2°54.294 7.4 26 14.2 99690 49
2011-07-18 07:13:32 51°15.873 2°54.3 5.6 51 14.2 99690 49
2011-07-18 07:13:37 51°15.89 2°54.305 4.9 261 14.2 99700 46
2011-07-18 07:13:43 51°15.91 2°54.312 9.5 60 14.2 99700 46
2011-07-18 07:13:48 51°15.926 2°54.317 8.6 268 14.2 99700 47
2011-07-18 07:13:52 51°15.939 2°54.324 10.1 56 14.2 99700 47
2011-07-18 07:13:57 51°15.956 2°54.33 8 23 14.3 99710 48
2011-07-18 07:14:03 51°15.976 2°54.338 7.2 55 14.3 99710 48
2011-07-18 07:14:08 51°15.992 2°54.344 6.6 22 14.3 99710 47
2011-07-18 07:14:12 51°16.006 2°54.348 5.9 309 14.3 99710 47
2011-07-18 07:14:17 51°16.021 2°54.355 6.5 26 14.3 99710 47
2011-07-18 07:14:22 51°16.037 2°54.359 6.8 300 14.3 99710 47
2011-07-18 07:14:28 51°16.056 2°54.363 8.7 270 14.2 99710 47
2011-07-18 07:14:32 51°16.068 2°54.366 8.1 56 14.2 99710 47
2011-07-18 07:14:37 51°16.082 2°54.367 8.4 24 14.2 99720 48
2011-07-18 07:14:42 51°16.095 2°54.367 8.9 53 14.2 99720 48
2011-07-18 07:14:48 51°16.109 2°54.365 9.4 21 14.3 99700 47
2011-07-18 07:14:52 51°16.118 2°54.363 7.8 305 14.3 99700 47
2011-07-18 07:14:57 51°16.129 2°54.36 9.1 27 14.3 99690 47
2011-07-18 07:15:02 51°16.139 2°54.356 6 302 14.3 99690 47
2011-07-18 07:15:08 51°16.15 2°54.352 6.6 268 14.3 99710 47
2011-07-18 07:15:12 51°16.157 2°54.348 9.3 307 14.3 99710 47
2011-07-18 07:15:17 51°16.166 2°54.344 9.4 268 14.3 99710 47
2011-07-18 07:15:22 51°16.174 2°54.34 8.8 310 14.3 99710 47
2011-07-18 07:15:28 51°16.183 2°54.334 7.5 264 14.3 99710 47
2011-07-18 07:15:32 51°16.188 2°54.33 7.3 306 14.3 99710 47
2011-07-18 07:15:37 51°16.195 2°54.325 7.8 267 14.3 99730 48
2011-07-18 07:15:42 51°16.201 2°54.321 6.8 309 14.3 99730 48
2011-07-18 07:15:48 51°16.208 2°54.315 6.4 266 14.3 99720 47
2011-07-18 07:15:52 51°16.212 2°54.312 6.5 304 14.3 99720 47
2011-07-18 07:15:57 51°16.217 2°54.307 6.6 265 14.4 99720 46
2011-07-18 07:16:03 51°16.224 2°54.301 6.7 303 14.4 99720 46
2011-07-18 07:16:08 51°16.229 2°54.297 9.5 262 14.4 99720 48
2011-07-18 07:16:12 51°16.232 2°54.294 8 302 14.4 99720 48
2011-07-18 07:16:17 51°16.237 2°54.29 7.9 266 14.4 99710 48
2011-07-18 07:16:22 51°16.241 2°54.286 7.4 306 14.4 99710 48
2011-07-18 07:16:28 51°16.245 2°54.282 8.8 264 14.5 99690 47
2011-07-18 07:16:32 51°16.248 2°54.28 8.8 305 14.5 99690 47
2011-07-18 07:16:37 51°16.25 2°54.278 8.4 266 14.5 99700 47
2011-07-18 07:16:42 51°16.252 2°54.276 9.7 310 14.5 99700 47
2011-07-18 07:16:48 51°16.254 2°54.274 9.9 266 14.5 99710 47
2011-07-18 07:16:52 51°16.255 2°54.274 9.6 304 14.5 99710 47
2011-07-18 07:16:57 51°16.257 2°54.273 12.8 269 14.5 99720 48
2011-07-18 07:17:02 51°16.258 2°54.272 10.9 59 14.5 99720 48
2011-07-18 07:17:08 51°16.259 2°54.273 9.2 268 14.5 99710 47
2011-07-18 07:17:12 51°16.26 2°54.272 8 309 14.5 99710 47
2011-07-18 07:17:17 51°16.26 2°54.272 7.3 264 14.5 99720 49
2011-07-18 07:17:22 51°16.261 2°54.272 10.1 305 14.5 99720 49
2011-07-18 07:17:28 51°16.262 2°54.272 9.6 266 14.5 99720 47
2011-07-18 07:17:32 51°16.262 2°54.272 11.8 302 14.5 99720 47
2011-07-18 07:17:37 51°16.262 2°54.272 4.7 264 14.5 99710 47
2011-07-18 07:17:42 51°16.263 2°54.272 10.1 279 14.5 99710 47
2011-07-18 07:17:48 51°16.263 2°54.272 10.2 264 14.6 99700 47
2011-07-18 07:17:52 51°16.263 2°54.272 8.5 303 14.6 99700 47
2011-07-18 07:17:57 51°16.264 2°54.272 8.6 265 14.5 99710 48
2011-07-18 07:18:02 51°16.264 2°54.272 7.9 305 14.5 99710 48
2011-07-18 07:18:08 51°16.265 2°54.272 9.3 265 14.5 99710 47
2011-07-18 07:18:12 51°16.265 2°54.273 8.7 304 14.5 99710 47
2011-07-18 07:18:17 51°16.266 2°54.273 8 264 14.5 99710 47
2011-07-18 07:18:23 51°16.267 2°54.273 9.8 302 14.5 99710 47
2011-07-18 07:18:28 51°16.267 2°54.274 4 263 14.5 99710 48
2011-07-18 07:18:32 51°16.267 2°54.273 9.9 306 14.5 99710 48
2011-07-18 07:18:37 51°16.267 2°54.274 9.1 267 14.5 99700 45
2011-07-18 07:18:42 51°16.268 2°54.274 8.9 302 14.5 99700 45
2011-07-18 07:18:48 51°16.268 2°54.275 11.7 262 14.5 99690 47
2011-07-18 07:18:52 51°16.268 2°54.274 8.1 302 14.5 99690 47
2011-07-18 07:18:57 51°16.268 2°54.275 9.9 266 14.5 99730 47
2011-07-18 07:19:02 51°16.269 2°54.275 7.9 304 14.5 99730 47
2011-07-18 07:19:08 51°16.269 2°54.275 8.1 266 14.5 99710 47
2011-07-18 07:19:12 51°16.269 2°54.275 9 309 14.5 99710 47
2011-07-18 07:19:17 51°16.269 2°54.276 8.2 264 14.5 99710 48
2011-07-18 07:19:22 51°16.269 2°54.276 9.6 308 14.5 99710 48
2011-07-18 07:19:28 51°16.27 2°54.277 12.1 31 14.5 99710 47
2011-07-18 07:19:32 51°16.27 2°54.277 11.1 304 14.5 99710 47
2011-07-18 07:19:37 51°16.27 2°54.278 12.3 265 14.6 99700 47
2011-07-18 07:19:42 51°16.27 2°54.278 5.6 305 14.6 99700 47
2011-07-18 07:19:48 51°16.271 2°54.279 6.5 266 14.6 99710 46
2011-07-18 07:19:52 51°16.271 2°54.28 8.1 304 14.6 99710 46
2011-07-18 07:19:57 51°16.271 2°54.28 3.2 266 14.6 99730 47
2011-07-18 07:20:03 51°16.271 2°54.281 10.4 305 14.6 99730 47
2011-07-18 07:20:07 51°16.271 2°54.281 8.7 264 14.6 99720 48
2011-07-18 07:20:12 51°16.271 2°54.282 8.8 304 14.6 99720 48
2011-07-18 07:20:17 51°16.272 2°54.282 8.8 267 14.6 99730 47
2011-07-18 07:20:23 51°16.272 2°54.283 10.4 307 14.6 99730 47
2011-07-18 07:20:27 51°16.272 2°54.283 8.2 266 14.6 99730 48
2011-07-18 07:20:32 51°16.272 2°54.284 8.2 309 14.6 99730 48
2011-07-18 07:20:36 51°16.272 2°54.284 9.5 266 14.6 99720 47
2011-07-18 07:20:42 51°16.272 2°54.284 4.4 308 14.6 99720 47
2011-07-18 07:20:48 51°16.272 2°54.285 7.8 270 14.6 99710 48
2011-07-18 07:20:52 51°16.272 2°54.286 11.3 305 14.6 99710 48
2011-07-18 07:20:57 51°16.272 2°54.286 11.2 264 14.6 99730 47
2011-07-18 07:21:02 51°16.272 2°54.287 9.8 305 14.6 99730 47
2011-07-18 07:21:08 51°16.273 2°54.287 11.7 269 14.6 99710 47
2011-07-18 07:21:12 51°16.273 2°54.288 10.5 58 14.6 99710 47
2011-07-18 07:21:16 51°16.273 2°54.288 12 24 14.5 99740 46
2011-07-18 07:21:22 51°16.274 2°54.289 11.6 305 14.5 99740 46
2011-07-18 07:21:28 51°16.274 2°54.29 8.6 266 14.5 99720 47
2011-07-18 07:21:32 51°16.274 2°54.29 5.9 299 14.5 99720 47
2011-07-18 07:21:36 51°16.274 2°54.29 8 264 14.5 99710 47
2011-07-18 07:21:42 51°16.274 2°54.291 7.1 305 14.5 99710 47
2011-07-18 07:21:47 51°16.274 2°54.291 8.5 268 14.5 99730 47
2011-07-18 07:21:52 51°16.274 2°54.291 7.9 302 14.5 99730 47
2011-07-18 07:21:57 51°16.274 2°54.291 9 267 14.5 99730 47
2011-07-18 07:22:03 51°16.274 2°54.292 10.4 305 14.5 99730 47
2011-07-18 07:22:07 51°16.274 2°54.292 8.1 270 14.6 99730 46
2011-07-18 07:22:12 51°16.274 2°54.292 10.1 307 14.6 99730 46
2011-07-18 07:22:16 51°16.275 2°54.292 9.1 265 14.6 99720 47
2011-07-18 07:22:22 51°16.275 2°54.292 9.4 304 14.6 99720 47
2011-07-18 07:22:28 51°16.275 2°54.292 6.8 263 14.6 99730 45
2011-07-18 07:22:32 51°16.275 2°54.292 10 303 14.6 99730 45
2011-07-18 07:22:36 51°16.275 2°54.293 10.6 269 14.6 99720 48
2011-07-18 07:22:42 51°16.275 2°54.292 8.8 303 14.6 99720 48
2011-07-18 07:22:48 51°16.275 2°54.293 4.4 267 14.6 99740 47
2011-07-18 07:22:52 51°16.275 2°54.293 7.7 303 14.6 99740 47
2011-07-18 07:22:57 51°16.276 2°54.293 11.1 268 14.6 99730 47
2011-07-18 07:23:03 51°16.276 2°54.293 8.1 305 14.6 99730 47
2011-07-18 07:23:08 51°16.278 2°54.293 13.4 269 14.6 99720 47
2011-07-18 07:23:12 51°16.279 2°54.292 5.1 308 14.6 99720 47
2011-07-18 07:23:16 51°16.28 2°54.291 7.5 264 14.6 99730 48
2011-07-18 07:23:22 51°16.282 2°54.29 8.5 305 14.6 99730 48
2011-07-18 07:23:28 51°16.286 2°54.289 10.6 264 14.6 99730 47
2011-07-18 07:23:32 51°16.288 2°54.287 9.3 305 14.6 99730 47
2011-07-18 07:23:36 51°16.29 2°54.285 3.8 267 14.6 99720 46
2011-07-18 07:23:42 51°16.295 2°54.28 6.7 307 14.6 99720 46
2011-07-18 07:23:47 51°16.299 2°54.276 16.2 259 14.6 99710 47
2011-07-18 07:23:52 51°16.304 2°54.271 4.4 304 14.6 99710 47
2011-07-18 07:23:56 51°16.307 2°54.266 5.8 253 14.5 99730 46
2011-07-18 07:24:02 51°16.313 2°54.258 16.1 308 14.5 99730 46
2011-07-18 07:24:07 51°16.318 2°54.25 7.9 254 14.5 99690 47
2011-07-18 07:24:12 51°16.324 2°54.242 17.7 306 14.5 99690 47
2011-07-18 07:24:16 51°16.328 2°54.234 13.8 254 14.5 99690 47
2011-07-18 07:24:22 51°16.334 2°54.223 6.8 305 14.5 99690 47
2011-07-18 07:24:27 51°16.34 2°54.212 7.5 251 14.5 99690 47
2011-07-18 07:24:32 51°16.345 2°54.2 2.3 304 14.5 99690 47
2011-07-18 07:24:36 51°16.35 2°54.19 16.2 246 14.5 99670 47
2011-07-18 07:24:42 51°16.356 2°54.173 8.1 304 14.5 99670 47
2011-07-18 07:24:48 51°16.363 2°54.155 14.9 246 14.5 99680 46
2011-07-18 07:24:52 51°16.368 2°54.142 15.2 305 14.5 99680 46
2011-07-18 07:24:57 51°16.373 2°54.126 17.1 21 14.5 99660 47
2011-07-18 07:25:03 51°16.38 2°54.104 4.1 304 14.5 99660 47
2011-07-18 07:25:08 51°16.385 2°54.084 17.7 24 14.5 99650 47
2011-07-18 07:25:12 51°16.389 2°54.068 4.5 305 14.5 99650 47
2011-07-18 07:25:16 51°16.393 2°54.052 9.1 24 14.5 99670 47
2011-07-18 07:25:22 51°16.399 2°54.028 13.8 306 14.5 99670 47
2011-07-18 07:25:28 51°16.406 2°54.003 15.6 24 14.5 99650 47
2011-07-18 07:25:32 51°16.41 2°53.985 3.7 305 14.5 99650 47
2011-07-18 07:25:37 51°16.416 2°53.963 13.8 23 14.5 99650 47
2011-07-18 07:25:42 51°16.423 2°53.941 13.9 307 14.5 99650 47
2011-07-18 07:25:47 51°16.429 2°53.918 4.4 24 14.6 99660 47
2011-07-18 07:25:52 51°16.436 2°53.895 8 308 14.6 99660 47
2011-07-18 07:25:56 51°16.441 2°53.877 3.3 24 14.6 99650 48
2011-07-18 07:26:02 51°16.45 2°53.849 4.7 304 14.6 99650 48
2011-07-18 07:26:08 51°16.458 2°53.82 15.7 21 14.6 99660 47
2011-07-18 07:26:12 51°16.465 2°53.802 7.9 305 14.6 99660 47
2011-07-18 07:26:16 51°16.471 2°53.784 9.5 24 14.6 99640 48
2011-07-18 07:26:22 51°16.481 2°53.757 4.4 305 14.6 99640 48
2011-07-18 07:26:28 51°16.491 2°53.729 7.7 24 14.6 99650 47
2011-07-18 07:26:32 51°16.498 2°53.711 13.9 303 14.6 99650 47
2011-07-18 07:26:37 51°16.506 2°53.688 14 22 14.6 99650 45
2011-07-18 07:26:42 51°16.515 2°53.665 14.4 307 14.6 99650 45
2011-07-18 07:26:48 51°16.526 2°53.64 7.1 25 14.6 99680 47
2011-07-18 07:26:52 51°16.534 2°53.622 6.8 306 14.6 99680 47
2011-07-18 07:26:56 51°16.542 2°53.605 15.2 22 14.6 99650 47
2011-07-18 07:27:02 51°16.554 2°53.58 4.4 305 14.6 99650 47
2011-07-18 07:27:08 51°16.566 2°53.554 14.1 24 14.6 99640 47
2011-07-18 07:27:12 51°16.574 2°53.538 4.1 304 14.6 99640 47
2011-07-18 07:27:16 51°16.582 2°53.522 16.9 22 14.6 99650 47
2011-07-18 07:27:22 51°16.594 2°53.498 7.8 309 14.6 99650 47
2011-07-18 07:27:28 51°16.608 2°53.474 4.4 248 14.6 99650 47
2011-07-18 07:27:32 51°16.616 2°53.458 14.2 305 14.6 99650 47
2011-07-18 07:27:36 51°16.624 2°53.441 6.1 24 14.6 99640 47
2011-07-18 07:27:42 51°16.638 2°53.417 7.5 305 14.6 99640 47
2011-07-18 07:27:48 51°16.652 2°53.393 1.5 250 14.6 99670 47
2011-07-18 07:27:52 51°16.662 2°53.377 14.7 309 14.6 99670 47
2011-07-18 07:27:56 51°16.671 2°53.361 4.6 24 14.5 99670 47
2011-07-18 07:28:02 51°16.686 2°53.339 11.7 306 14.5 99670 47
2011-07-18 07:28:07 51°16.698 2°53.319 7.5 253 14.5 99660 47
2011-07-18 07:28:12 51°16.711 2°53.301 7.9 305 14.5 99660 47
2011-07-18 07:28:16 51°16.722 2°53.287 15 252 14.6 99650 47
2011-07-18 07:28:22 51°16.738 2°53.267 15.8 306 14.6 99650 47
2011-07-18 07:28:28 51°16.755 2°53.246 6 255 14.6 99680 47
2011-07-18 07:28:32 51°16.766 2°53.233 15.6 306 14.6 99680 47
2011-07-18 07:28:36 51°16.777 2°53.22 11 252 14.6 99680 47
2011-07-18 07:28:42 51°16.794 2°53.202 5.7 304 14.6 99680 47
2011-07-18 07:28:48 51°16.812 2°53.183 4.4 250 14.5 99670 47
2011-07-18 07:28:52 51°16.823 2°53.171 12.9 305 14.5 99670 47
2011-07-18 07:28:56 51°16.835 2°53.16 15.3 255 14.5 99680 47
2011-07-18 07:29:02 51°16.852 2°53.142 4.4 304 14.5 99680 47
2011-07-18 07:29:08 51°16.869 2°53.124 13.3 253 14.5 99680 46
2011-07-18 07:29:12 51°16.88 2°53.112 12.5 304 14.5 99680 46
2011-07-18 07:29:16 51°16.892 2°53.101 10.8 251 14.5 99690 46
2011-07-18 07:29:22 51°16.908 2°53.082 10.4 309 14.5 99690 46
2011-07-18 07:29:28 51°16.924 2°53.063 11.3 246 14.5 99680 47
2011-07-18 07:29:32 51°16.935 2°53.05 13.5 304 14.5 99680 47
2011-07-18 07:29:37 51°16.947 2°53.033 13.4 251 14.5 99690 47
2011-07-18 07:29:42 51°16.961 2°53.016 6.6 302 14.5 99690 47
2011-07-18 07:29:48 51°16.976 2°52.995 12.5 246 14.5 99690 47
2011-07-18 07:29:52 51°16.986 2°52.98 12.9 305 14.5 99690 47
2011-07-18 07:29:56 51°16.996 2°52.966 15.5 248 14.5 99660 48
2011-07-18 07:30:02 51°17.012 2°52.944 13.3 308 14.5 99660 48
2011-07-18 07:30:08 51°17.028 2°52.923 16.4 251 14.5 99670 46
2011-07-18 07:30:12 51°17.038 2°52.908 15.5 309 14.5 99670 46
2011-07-18 07:30:16 51°17.049 2°52.894 18.3 248 14.6 99650 47
2011-07-18 07:30:22 51°17.064 2°52.872 4.4 305 14.6 99650 47
2011-07-18 07:30:27 51°17.077 2°52.853 13.2 250 14.6 99680 47
2011-07-18 07:30:32 51°17.091 2°52.835 13.8 305 14.6 99680 47
2011-07-18 07:30:36 51°17.101 2°52.82 16.3 254 14.6 99670 47
2011-07-18 07:30:42 51°17.117 2°52.799 12.1 305 14.6 99670 47
2011-07-18 07:30:48 51°17.133 2°52.778 2.6 247 14.6 99670 47
2011-07-18 07:30:52 51°17.143 2°52.763 11 306 14.6 99670 47
2011-07-18 07:30:56 51°17.153 2°52.748 3.5 23 14.6 99680 47
2011-07-18 07:31:02 51°17.168 2°52.726 7.2 305 14.6 99680 47
2011-07-18 07:31:08 51°17.183 2°52.704 13.9 21 14.5 99670 47
2011-07-18 07:31:12 51°17.193 2°52.69 14.9 303 14.5 99670 47
2011-07-18 07:31:16 51°17.204 2°52.675 13.3 248 14.6 99660 47
2011-07-18 07:31:22 51°17.219 2°52.655 13.9 306 14.6 99660 47
2011-07-18 07:31:28 51°17.236 2°52.635 13.6 253 14.5 99670 47
2011-07-18 07:31:32 51°17.247 2°52.623 6.5 307 14.5 99670 47
2011-07-18 07:31:36 51°17.258 2°52.609 14.4 252 14.6 99660 47
2011-07-18 07:31:42 51°17.275 2°52.591 6.7 304 14.6 99660 47
2011-07-18 07:31:48 51°17.292 2°52.572 9.7 252 14.5 99670 47
2011-07-18 07:31:52 51°17.304 2°52.561 4.4 305 14.5 99670 47
2011-07-18 07:31:56 51°17.315 2°52.55 7.1 254 14.5 99670 46
2011-07-18 07:32:03 51°17.336 2°52.53 4.4 305 14.5 99670 46
2011-07-18 07:32:08 51°17.351 2°52.517 6.3 253 14.5 99690 47
2011-07-18 07:32:12 51°17.363 2°52.505 3.3 307 14.5 99690 47
2011-07-18 07:32:16 51°17.375 2°52.495 12.7 249 14.5 99670 47
2011-07-18 07:32:22 51°17.393 2°52.478 12.2 305 14.5 99670 47
2011-07-18 07:32:28 51°17.412 2°52.463 10.6 250 14.5 99670 47
2011-07-18 07:32:32 51°17.424 2°52.452 14.8 306 14.5 99670 47
2011-07-18 07:32:36 51°17.436 2°52.441 11.8 254 14.5 99680 47
2011-07-18 07:32:42 51°17.454 2°52.426 4.4 286 14.5 99680 47
2011-07-18 07:32:48 51°17.473 2°52.411 14.5 257 14.5 99670 47
2011-07-18 07:32:52 51°17.485 2°52.402 12.8 304 14.5 99670 47
2011-07-18 07:32:56 51°17.498 2°52.394 11.9 258 14.6 99680 47
2011-07-18 07:33:02 51°17.517 2°52.381 9 304 14.6 99680 47
2011-07-18 07:33:08 51°17.537 2°52.371 8.5 260 14.5 99680 47
2011-07-18 07:33:12 51°17.55 2°52.364 9.4 303 14.5 99680 47
2011-07-18 07:33:16 51°17.563 2°52.357 11.1 256 14.5 99670 47
2011-07-18 07:33:22 51°17.582 2°52.348 10.5 304 14.5 99670 47
2011-07-18 07:33:28 51°17.602 2°52.338 12.5 262 14.6 99690 47
2011-07-18 07:33:32 51°17.615 2°52.333 11.1 305 14.6 99690 47
2011-07-18 07:33:38 51°17.635 2°52.324 10 254 14.5 99680 47
2011-07-18 07:33:42 51°17.648 2°52.318 10.3 286 14.5 99680 47
2011-07-18 07:33:48 51°17.668 2°52.309 9.9 261 14.5 99690 47
2011-07-18 07:33:52 51°17.681 2°52.302 10.2 308 14.5 99690 47
2011-07-18 07:33:56 51°17.694 2°52.295 11.2 256 14.6 99680 47
2011-07-18 07:34:02 51°17.712 2°52.284 10.1 305 14.6 99680 47
2011-07-18 07:34:08 51°17.732 2°52.273 8 254 14.6 99690 47
2011-07-18 07:34:12 51°17.744 2°52.264 12.3 305 14.6 99690 47
2011-07-18 07:34:17 51°17.76 2°52.254 11.1 252 14.6 99690 47
2011-07-18 07:34:22 51°17.776 2°52.243 10.7 304 14.6 99690 47
2011-07-18 07:34:28 51°17.794 2°52.23 11.4 20 14.6 99680 47
2011-07-18 07:34:32 51°17.807 2°52.221 4.4 305 14.6 99680 47
2011-07-18 07:34:36 51°17.819 2°52.213 13.7 252 14.6 99690 46
2011-07-18 07:34:42 51°17.837 2°52.198 9.8 307 14.6 99690 46
2011-07-18 07:34:48 51°17.855 2°52.184 11.6 252 14.6 99670 48
2011-07-18 07:34:52 51°17.867 2°52.173 8.5 307 14.6 99670 48
2011-07-18 07:34:56 51°17.879 2°52.163 8.7 250 14.6 99670 47
2011-07-18 07:35:02 51°17.896 2°52.146 13.2 306 14.6 99670 47
2011-07-18 07:35:07 51°17.911 2°52.132 14.3 251 14.6 99670 47
2011-07-18 07:35:12 51°17.925 2°52.118 11.2 305 14.6 99670 47
2011-07-18 07:35:16 51°17.937 2°52.105 5 250 14.7 99680 47
2011-07-18 07:35:22 51°17.954 2°52.087 9.5 306 14.7 99680 47
2011-07-18 07:35:28 51°17.971 2°52.069 10.5 246 14.7 99690 47
2011-07-18 07:35:32 51°17.982 2°52.056 3.3 304 14.7 99690 47
2011-07-18 07:35:36 51°17.993 2°52.043 4.7 254 14.6 99650 47
2011-07-18 07:35:43 51°18.012 2°52.021 10.3 282 14.6 99650 47
2011-07-18 07:35:48 51°18.025 2°52.005 10.3 249 14.7 99670 47
2011-07-18 07:35:52 51°18.035 2°51.992 12.2 306 14.7 99670 47
2011-07-18 07:35:56 51°18.045 2°51.978 12.1 249 14.7 99650 48
2011-07-18 07:36:02 51°18.059 2°51.956 7.1 304 14.7 99650 48
2011-07-18 07:36:08 51°18.074 2°51.934 14 250 14.7 99680 47
2011-07-18 07:36:12 51°18.084 2°51.919 9.2 307 14.7 99680 47
2011-07-18 07:36:16 51°18.093 2°51.904 14.9 24 14.7 99670 47
2011-07-18 07:36:22 51°18.107 2°51.881 15.4 305 14.7 99670 47
2011-07-18 07:36:28 51°18.121 2°51.857 13.1 249 14.7 99670 47
2011-07-18 07:36:32 51°18.13 2°51.841 4.7 305 14.7 99670 47
2011-07-18 07:36:36 51°18.14 2°51.825 17.8 22 14.7 99650 47
2011-07-18 07:36:42 51°18.154 2°51.802 12.4 304 14.7 99650 47
2011-07-18 07:36:48 51°18.169 2°51.778 12.3 248 14.7 99660 48
2011-07-18 07:36:52 51°18.179 2°51.762 15.8 305 14.7 99660 48
2011-07-18 07:36:57 51°18.191 2°51.743 7.7 250 14.7 99630 47
2011-07-18 07:37:03 51°18.206 2°51.719 6.7 303 14.7 99630 47
2011-07-18 07:37:08 51°18.218 2°51.7 8.2 248 14.7 99630 47
2011-07-18 07:37:12 51°18.228 2°51.684 5.8 305 14.7 99630 47
2011-07-18 07:37:16 51°18.238 2°51.668 5.8 248 14.7 99650 46
2011-07-18 07:37:22 51°18.252 2°51.645 16.7 308 14.7 99650 46
2011-07-18 07:37:27 51°18.264 2°51.625 13.6 21 14.7 99660 47
2011-07-18 07:37:32 51°18.276 2°51.605 9 306 14.7 99660 47
2011-07-18 07:37:36 51°18.286 2°51.589 8 250 14.7 99640 47
2011-07-18 07:37:42 51°18.3 2°51.565 12.9 282 14.7 99640 47
2011-07-18 07:37:47 51°18.312 2°51.545 20.8 247 14.6 99660 47
2011-07-18 07:37:52 51°18.324 2°51.525 12.3 305 14.6 99660 47
2011-07-18 07:37:56 51°18.333 2°51.509 14.5 246 14.6 99660 47
2011-07-18 07:38:02 51°18.347 2°51.485 18.1 304 14.6 99660 47
2011-07-18 07:38:07 51°18.359 2°51.465 2.7 26 14.7 99650 47
2011-07-18 07:38:12 51°18.371 2°51.445 4.2 305 14.7 99650 47
2011-07-18 07:38:16 51°18.381 2°51.429 7.4 24 14.7 99650 47
2011-07-18 07:38:22 51°18.395 2°51.404 15.7 303 14.7 99650 47
2011-07-18 07:38:27 51°18.407 2°51.384 17.6 26 14.7 99650 47
2011-07-18 07:38:32 51°18.418 2°51.364 7.6 305 14.7 99650 47
2011-07-18 07:38:36 51°18.427 2°51.347 15.5 23 14.8 99660 47
2011-07-18 07:38:42 51°18.44 2°51.322 18.1 306 14.8 99660 47
2011-07-18 07:38:48 51°18.453 2°51.297 11.5 245 14.8 99630 48
2011-07-18 07:38:52 51°18.462 2°51.281 14.4 304 14.8 99630 48
2011-07-18 07:38:57 51°18.473 2°51.26 6.4 25 14.8 99640 47
2011-07-18 07:39:02 51°18.484 2°51.239 19.2 304 14.8 99640 47
2011-07-18 07:39:08 51°18.495 2°51.212 8.8 25 14.8 99690 47
2011-07-18 07:39:13 51°18.503 2°51.192 8.3 305 14.8 99690 47
2011-07-18 07:39:18 51°18.511 2°51.171 17.1 21 14.8 99650 47
2011-07-18 07:39:24 51°18.518 2°51.149 8.5 306 14.8 99650 47
2011-07-18 07:39:28 51°18.523 2°51.134 7.8 25 14.8 99640 47
2011-07-18 07:39:33 51°18.528 2°51.117 14.1 309 14.8 99640 47
2011-07-18 07:39:38 51°18.533 2°51.101 6.8 24 14.8 99660 47
2011-07-18 07:39:43 51°18.537 2°51.086 12.5 283 14.8 99660 47
2011-07-18 07:39:48 51°18.54 2°51.073 4.6 24 14.8 99620 47
2011-07-18 07:39:52 51°18.542 2°51.063 14.7 307 14.8 99620 47
2011-07-18 07:39:56 51°18.544 2°51.053 2.5 23 14.8 99640 45
2011-07-18 07:40:02 51°18.546 2°51.041 15 303 14.8 99640 45
2011-07-18 07:40:07 51°18.548 2°51.031 16.5 23 14.8 99650 47
2011-07-18 07:40:12 51°18.549 2°51.023 14.9 303 14.8 99650 47
2011-07-18 07:40:16 51°18.55 2°51.018 15.1 22 14.8 99670 47
2011-07-18 07:40:22 51°18.553 2°51.01 6.4 306 14.8 99670 47
2011-07-18 07:40:27 51°18.555 2°51.007 12.1 23 14.8 99650 47
2011-07-18 07:40:32 51°18.557 2°51.003 14.3 309 14.8 99650 47
2011-07-18 07:40:36 51°18.558 2°51 12.9 249 14.8 99650 47
2011-07-18 07:40:42 51°18.56 2°50.996 12.1 303 14.8 99650 47
2011-07-18 07:40:48 51°18.561 2°50.992 4.6 249 14.8 99650 47
2011-07-18 07:40:52 51°18.562 2°50.991 12.7 305 14.8 99650 47
2011-07-18 07:40:56 51°18.563 2°50.989 12.2 19 14.8 99670 48
2011-07-18 07:41:02 51°18.564 2°50.988 14.8 309 14.8 99670 48
2011-07-18 07:41:08 51°18.564 2°50.988 12.9 252 14.9 99670 48
2011-07-18 07:41:12 51°18.565 2°50.988 13.2 308 14.9 99670 48
2011-07-18 07:41:16 51°18.566 2°50.988 4.3 250 14.9 99670 47
2011-07-18 07:41:22 51°18.567 2°50.988 3.5 305 14.9 99670 47
2011-07-18 07:41:28 51°18.568 2°50.988 5.1 254 14.9 99690 47
2011-07-18 07:41:32 51°18.568 2°50.988 6.7 308 14.9 99690 47
2011-07-18 07:41:36 51°18.569 2°50.988 15.7 257 14.9 99680 47
2011-07-18 07:41:42 51°18.569 2°50.989 17.3 281 14.9 99680 47
2011-07-18 07:41:48 51°18.57 2°50.99 15.4 260 14.9 99700 47
2011-07-18 07:41:53 51°18.571 2°50.99 10.2 305 14.9 99700 47
2011-07-18 07:41:59 51°18.572 2°50.99 11.1 262 14.8 99690 47
2011-07-18 07:42:04 51°18.572 2°50.991 8 310 14.8 99690 47
2011-07-18 07:42:10 51°18.573 2°50.991 1.6 265 14.8 99690 47
2011-07-18 07:42:16 51°18.573 2°50.992 8.4 307 14.8 99690 47
2011-07-18 07:42:20 51°18.574 2°50.992 8.2 265 14.8 99700 47
2011-07-18 07:42:24 51°18.574 2°50.992 12.2 306 14.8 99700 47
2011-07-18 07:42:29 51°18.575 2°50.992 8.8 266 14.8 99700 46
2011-07-18 07:42:34 51°18.575 2°50.992 8.7 302 14.8 99700 46
2011-07-18 07:42:39 51°18.575 2°50.993 9.3 265 14.8 99730 46
2011-07-18 07:42:44 51°18.576 2°50.993 9.3 302 14.8 99730 46
2011-07-18 07:42:48 51°18.576 2°50.993 8.1 266 14.8 99710 47
2011-07-18 07:42:53 51°18.576 2°50.993 9.2 309 14.8 99710 47
2011-07-18 07:42:58 51°18.577 2°50.993 6.3 25 14.8 99720 47
2011-07-18 07:43:03 51°18.577 2°50.994 10.6 54 14.8 99720 47
2011-07-18 07:43:08 51°18.578 2°50.994 8.7 264 14.8 99710 47
2011-07-18 07:43:12 51°18.578 2°50.994 11.5 305 14.8 99710 47
2011-07-18 07:43:16 51°18.578 2°50.995 12.1 22 14.8 99700 47
2011-07-18 07:43:22 51°18.579 2°50.995 8.6 308 14.8 99700 47
2011-07-18 07:43:28 51°18.579 2°50.996 9.6 269 14.8 99720 47
2011-07-18 07:43:32 51°18.579 2°50.996 5.2 306 14.8 99720 47
2011-07-18 07:43:36 51°18.58 2°50.996 12.9 253 14.8 99720 48
2011-07-18 07:43:42 51°18.579 2°50.997 9.1 280 14.8 99720 48
2011-07-18 07:43:48 51°18.58 2°50.998 7.1 270 14.8 99700 46
2011-07-18 07:43:52 51°18.581 2°50.998 7.5 308 14.8 99700 46
2011-07-18 07:43:56 51°18.581 2°50.999 7.2 264 14.8 99730 47
2011-07-18 07:44:02 51°18.581 2°50.999 7 308 14.8 99730 47
2011-07-18 07:44:07 51°18.581 2°50.999 10.7 267 14.8 99730 46
2011-07-18 07:44:12 51°18.581 2°50.999 5.7 304 14.8 99730 46
2011-07-18 07:44:16 51°18.582 2°51 9 265 14.8 99720 47
2011-07-18 07:44:22 51°18.582 2°51 10 305 14.8 99720 47
2011-07-18 07:44:28 51°18.582 2°51 5 267 14.8 99710 47
2011-07-18 07:44:32 51°18.582 2°51 10.4 306 14.8 99710 47
2011-07-18 07:44:36 51°18.582 2°51 9.1 25 14.8 99700 46
2011-07-18 07:44:42 51°18.582 2°51.001 9.1 304 14.8 99700 46
2011-07-18 07:44:48 51°18.582 2°51.001 5.5 267 14.8 99700 47
2011-07-18 07:44:52 51°18.583 2°51.002 8.3 308 14.8 99700 47
2011-07-18 07:44:56 51°18.582 2°51.002 9.2 268 14.8 99710 47
2011-07-18 07:45:02 51°18.583 2°51.002 6.9 306 14.8 99710 47
2011-07-18 07:45:08 51°18.583 2°51.003 8.4 266 14.8 99700 47
2011-07-18 07:45:12 51°18.583 2°51.003 9.3 301 14.8 99700 47
2011-07-18 07:45:16 51°18.583 2°51.004 4.2 268 14.8 99720 45
2011-07-18 07:45:22 51°18.583 2°51.004 8.6 57 14.8 99720 45
2011-07-18 07:45:28 51°18.583 2°51.004 9.6 268 14.9 99710 47
2011-07-18 07:45:32 51°18.583 2°51.004 7.3 305 14.9 99710 47
2011-07-18 07:45:36 51°18.584 2°51.005 7.6 266 14.9 99730 47
2011-07-18 07:45:42 51°18.584 2°51.005 8 282 14.9 99730 47
2011-07-18 07:45:48 51°18.584 2°51.006 6.5 264 14.9 99720 47
2011-07-18 07:45:52 51°18.584 2°51.006 9.1 305 14.9 99720 47
2011-07-18 07:45:56 51°18.584 2°51.007 9.6 263 15 99710 47
2011-07-18 07:46:02 51°18.584 2°51.007 6.9 305 15 99710 47
2011-07-18 07:46:08 51°18.584 2°51.007 9.4 265 15 99700 48
2011-07-18 07:46:12 51°18.584 2°51.007 7.4 305 15 99700 48
2011-07-18 07:46:16 51°18.585 2°51.008 8.4 265 15 99710 47
2011-07-18 07:46:22 51°18.584 2°51.009 6.8 302 15 99710 47
2011-07-18 07:46:28 51°18.584 2°51.009 7 265 15 99700 47
2011-07-18 07:46:32 51°18.584 2°51.009 5.2 303 15 99700 47
2011-07-18 07:46:36 51°18.584 2°51.011 9.6 266 15 99700 46
2011-07-18 07:46:42 51°18.584 2°51.011 11.5 308 15 99700 46
2011-07-18 07:46:48 51°18.584 2°51.012 11.3 270 15 99700 47
2011-07-18 07:46:52 51°18.583 2°51.012 10.4 303 15 99700 47
2011-07-18 07:46:56 51°18.584 2°51.013 6.8 263 15 99700 47
2011-07-18 07:47:02 51°18.584 2°51.013 4.4 302 15 99700 47
2011-07-18 07:47:08 51°18.584 2°51.014 4.9 267 15 99740 47
2011-07-18 07:47:12 51°18.584 2°51.014 10.9 303 15 99740 47
2011-07-18 07:47:16 51°18.584 2°51.014 5.8 268 15 99710 46
2011-07-18 07:47:22 51°18.584 2°51.015 7.6 302 15 99710 46
2011-07-18 07:47:28 51°18.584 2°51.015 8.2 266 14.9 99710 47
2011-07-18 07:47:32 51°18.584 2°51.016 10.6 303 14.9 99710 47
2011-07-18 07:47:36 51°18.584 2°51.016 10.1 265 14.9 99730 46
2011-07-18 07:47:42 51°18.584 2°51.017 10.8 281 14.9 99730 46
2011-07-18 07:47:48 51°18.585 2°51.018 2.6 266 14.9 99720 46
2011-07-18 07:47:52 51°18.584 2°51.018 10.4 308 14.9 99720 46
2011-07-18 07:47:56 51°18.585 2°51.02 10 268 14.9 99710 45
2011-07-18 07:48:02 51°18.585 2°51.021 11.1 282 14.9 99710 45
2011-07-18 07:48:08 51°18.585 2°51.021 8.8 266 14.9 99730 47
2011-07-18 07:48:12 51°18.585 2°51.021 8.9 303 14.9 99730 47
2011-07-18 07:48:16 51°18.586 2°51.022 8.3 267 14.9 99730 47
2011-07-18 07:48:22 51°18.586 2°51.023 9.4 279 14.9 99730 47
2011-07-18 07:48:27 51°18.585 2°51.023 3.8 265 14.9 99720 47
2011-07-18 07:48:32 51°18.585 2°51.024 7.2 307 14.9 99720 47
2011-07-18 07:48:36 51°18.585 2°51.024 8.9 265 14.9 99710 47
2011-07-18 07:48:42 51°18.585 2°51.025 4.4 304 14.9 99710 47
2011-07-18 07:48:48 51°18.585 2°51.025 7.7 266 14.9 99710 47
2011-07-18 07:48:52 51°18.585 2°51.026 8 303 14.9 99710 47
2011-07-18 07:48:56 51°18.585 2°51.026 2.9 269 14.9 99710 47
2011-07-18 07:49:02 51°18.586 2°51.027 5.7 306 14.9 99710 47
2011-07-18 07:49:08 51°18.587 2°51.027 8.9 269 14.9 99710 46
2011-07-18 07:49:12 51°18.587 2°51.027 10.7 282 14.9 99710 46
2011-07-18 07:49:16 51°18.588 2°51.027 6.1 270 14.9 99710 47
2011-07-18 07:49:22 51°18.591 2°51.026 13.3 306 14.9 99710 47
2011-07-18 07:49:28 51°18.593 2°51.025 11.8 23 14.9 99710 46
2011-07-18 07:49:32 51°18.596 2°51.025 9.8 306 14.9 99710 46
2011-07-18 07:49:36 51°18.598 2°51.024 11.1 25 14.9 99710 47
2011-07-18 07:49:42 51°18.602 2°51.023 11.3 79 14.9 99710 47
2011-07-18 07:49:48 51°18.607 2°51.023 12.7 28 14.9 99700 47
2011-07-18 07:49:52 51°18.61 2°51.023 10.8 54 14.9 99700 47
2011-07-18 07:49:56 51°18.613 2°51.023 10.7 19 14.9 99720 46
2011-07-18 07:50:02 51°18.619 2°51.026 5.2 57 14.9 99720 46
2011-07-18 07:50:08 51°18.624 2°51.029 11 22 14.9 99730 47
2011-07-18 07:50:12 51°18.628 2°51.031 6.5 52 14.9 99730 47
2011-07-18 07:50:16 51°18.631 2°51.033 5.8 25 15 99720 47
2011-07-18 07:50:22 51°18.636 2°51.038 4.5 82 15 99720 47
2011-07-18 07:50:28 51°18.641 2°51.044 6.1 26 14.9 99730 47
2011-07-18 07:50:32 51°18.643 2°51.049 4.7 57 14.9 99730 47
2011-07-18 07:50:36 51°18.645 2°51.054 8 25 14.9 99730 45
2011-07-18 07:50:42 51°18.648 2°51.062 9.5 41 14.9 99730 45
2011-07-18 07:50:47 51°18.65 2°51.069 10.9 36 15 99700 47
2011-07-18 07:50:52 51°18.65 2°51.076 9.2 34 15 99700 47
2011-07-18 07:50:56 51°18.651 2°51.082 9.9 32 15 99700 47
2011-07-18 07:51:02 51°18.65 2°51.09 11.3 26 15 99700 47
2011-07-18 07:51:08 51°18.649 2°51.098 11.6 23 15 99680 47
2011-07-18 07:51:12 51°18.648 2°51.104 12.2 25 15 99680 47
2011-07-18 07:51:16 51°18.646 2°51.11 5.5 23 15 99670 47
2011-07-18 07:51:22 51°18.644 2°51.117 11 17 15 99670 47
2011-07-18 07:51:28 51°18.64 2°51.125 11.1 18 15 99670 46
2011-07-18 07:51:32 51°18.638 2°51.13 14.2 13 15 99670 46
2011-07-18 07:51:36 51°18.634 2°51.135 12.4 11 15.1 99670 46
2011-07-18 07:51:42 51°18.629 2°51.143 8.2 11 15.1 99670 46
2011-07-18 07:51:48 51°18.623 2°51.149 11.3 4 15.1 99670 47
2011-07-18 07:51:52 51°18.618 2°51.154 15.2 9 15.1 99670 47
2011-07-18 07:51:56 51°18.613 2°51.158 8.4 5 15.1 99670 47
2011-07-18 07:52:02 51°18.605 2°51.164 15.8 2 15.1 99670 47
2011-07-18 07:52:08 51°18.595 2°51.171 9.5 7 15 99660 46
2011-07-18 07:52:12 51°18.588 2°51.175 9.5 6 15 99660 46
2011-07-18 07:52:16 51°18.581 2°51.182 12.1 2 15.1 99660 47
2011-07-18 07:52:23 51°18.566 2°51.192 5.8 6 15.1 99660 47
2011-07-18 07:52:28 51°18.555 2°51.199 9.7 2 15.1 99660 47
2011-07-18 07:52:32 51°18.546 2°51.208 17.9 7 15.1 99660 47
2011-07-18 07:52:36 51°18.537 2°51.214 15.5 360 15.1 99660 46
2011-07-18 07:52:42 51°18.523 2°51.227 13.6 -999 15.1 99660 46
2011-07-18 07:52:48 51°18.508 2°51.239 8.6 6 15.1 99660 47
2011-07-18 07:52:52 51°18.498 2°51.249 7.5 2 15.1 99660 47
2011-07-18 07:52:56 51°18.487 2°51.258 5.8 358 15.1 99650 47
2011-07-18 07:53:02 51°18.472 2°51.273 14.1 4 15.1 99650 47
2011-07-18 07:53:08 51°18.454 2°51.287 17.6 -999 15.1 99650 46
2011-07-18 07:53:12 51°18.443 2°51.299 4.8 359 15.1 99650 46
2011-07-18 07:53:16 51°18.432 2°51.308 15.6 359 15.1 99650 45
2011-07-18 07:53:22 51°18.416 2°51.326 17.7 358 15.1 99650 45
2011-07-18 07:53:28 51°18.398 2°51.341 3.9 359 15.1 99640 47
2011-07-18 07:53:32 51°18.388 2°51.353 7 4 15.1 99640 47
2011-07-18 07:53:37 51°18.374 2°51.37 15.6 2 15.1 99630 46
2011-07-18 07:53:43 51°18.355 2°51.382 15.3 2 15.1 99630 46
2011-07-18 07:53:48 51°18.342 2°51.398 12.8 359 15.1 99620 47
2011-07-18 07:53:52 51°18.33 2°51.408 16.5 360 15.1 99620 47
2011-07-18 07:53:56 51°18.317 2°51.417 16.2 359 15 99630 47
2011-07-18 07:54:02 51°18.3 2°51.435 16.1 360 15 99630 47
2011-07-18 07:54:08 51°18.283 2°51.451 12.6 1 15.1 99640 47
2011-07-18 07:54:12 51°18.271 2°51.462 15.5 4 15.1 99640 47
2011-07-18 07:54:17 51°18.257 2°51.476 17.6 358 15.1 99650 47
2011-07-18 07:54:22 51°18.242 2°51.49 17 -999 15.1 99650 47
2011-07-18 07:54:28 51°18.225 2°51.506 11.4 2 15 99630 46
2011-07-18 07:54:32 51°18.213 2°51.515 13.9 359 15 99630 46
2011-07-18 07:54:37 51°18.199 2°51.531 20.2 1 15 99640 47
2011-07-18 07:54:42 51°18.183 2°51.542 9.4 2 15 99640 47
2011-07-18 07:54:48 51°18.166 2°51.559 11.7 -999 15.1 99650 47
2011-07-18 07:54:52 51°18.154 2°51.569 20.4 358 15.1 99650 47
2011-07-18 07:54:57 51°18.139 2°51.58 13.4 359 15 99630 46
2011-07-18 07:55:02 51°18.123 2°51.594 5.6 359 15 99630 46
2011-07-18 07:55:08 51°18.104 2°51.606 17.3 359 15 99640 47
2011-07-18 07:55:12 51°18.092 2°51.615 14 357 15 99640 47
2011-07-18 07:55:17 51°18.078 2°51.628 8.5 356 15.1 99650 47
2011-07-18 07:55:22 51°18.062 2°51.639 15.3 357 15.1 99650 47
2011-07-18 07:55:28 51°18.043 2°51.654 8.5 354 15 99650 46
2011-07-18 07:55:32 51°18.03 2°51.661 20.2 357 15 99650 46
2011-07-18 07:55:37 51°18.015 2°51.672 17 352 15 99660 46
2011-07-18 07:55:42 51°17.999 2°51.684 8.1 354 15 99660 46
2011-07-18 07:55:48 51°17.98 2°51.695 17.8 358 15 99650 47
2011-07-18 07:55:52 51°17.968 2°51.705 18.3 358 15 99650 47
2011-07-18 07:55:57 51°17.952 2°51.716 10.6 354 15 99660 45
2011-07-18 07:56:02 51°17.936 2°51.726 21 357 15 99660 45
2011-07-18 07:56:08 51°17.918 2°51.737 18.3 356 15 99650 46
2011-07-18 07:56:12 51°17.906 2°51.748 8.2 357 15 99650 46
2011-07-18 07:56:17 51°17.89 2°51.758 18.3 358 15 99650 47
2011-07-18 07:56:22 51°17.875 2°51.769 7.9 357 15 99650 47
2011-07-18 07:56:28 51°17.856 2°51.782 13.9 357 15 99650 47
2011-07-18 07:56:32 51°17.843 2°51.79 16.2 357 15 99650 47
2011-07-18 07:56:37 51°17.828 2°51.801 16.3 352 15.1 99650 46
2011-07-18 07:56:43 51°17.808 2°51.812 16.7 357 15.1 99650 46
2011-07-18 07:56:48 51°17.793 2°51.824 17.1 356 15 99660 46
2011-07-18 07:56:52 51°17.78 2°51.832 16.1 357 15 99660 46
2011-07-18 07:56:57 51°17.764 2°51.842 12.8 356 15 99660 47
2011-07-18 07:57:02 51°17.749 2°51.852 7.2 1 15 99660 47
2011-07-18 07:57:08 51°17.73 2°51.866 7.5 359 15 99640 46
2011-07-18 07:57:12 51°17.717 2°51.876 7.5 4 15 99640 46
2011-07-18 07:57:17 51°17.701 2°51.884 6.2 356 15 99670 47
2011-07-18 07:57:22 51°17.687 2°51.897 15.2 360 15 99670 47
2011-07-18 07:57:28 51°17.667 2°51.907 12.7 358 15 99660 47
2011-07-18 07:57:32 51°17.655 2°51.917 16.5 360 15 99660 47
2011-07-18 07:57:37 51°17.639 2°51.928 6.6 354 14.9 99670 46
2011-07-18 07:57:42 51°17.623 2°51.939 14.2 355 14.9 99670 46
2011-07-18 07:57:48 51°17.604 2°51.95 14.9 357 14.9 99670 46
2011-07-18 07:57:52 51°17.591 2°51.96 6.7 354 14.9 99670 46
2011-07-18 07:57:57 51°17.575 2°51.972 12.9 2 14.9 99670 47
2011-07-18 07:58:02 51°17.56 2°51.982 12 353 14.9 99670 47
2011-07-18 07:58:08 51°17.541 2°51.996 16.6 356 14.9 99680 47
2011-07-18 07:58:12 51°17.528 2°52.003 10.2 357 14.9 99680 47
2011-07-18 07:58:17 51°17.512 2°52.018 7 357 14.9 99670 46
2011-07-18 07:58:22 51°17.495 2°52.026 10.9 357 14.9 99670 46
2011-07-18 07:58:28 51°17.477 2°52.041 15.4 357 14.9 99670 46
2011-07-18 07:58:32 51°17.464 2°52.05 17.1 358 14.9 99670 46
2011-07-18 07:58:37 51°17.448 2°52.059 14.3 357 14.8 99670 45
2011-07-18 07:58:42 51°17.433 2°52.073 18 357 14.8 99670 45
2011-07-18 07:58:47 51°17.416 2°52.083 8.5 357 14.8 99670 47
2011-07-18 07:58:52 51°17.401 2°52.096 17.9 356 14.8 99670 47
2011-07-18 07:58:56 51°17.388 2°52.105 17.5 360 14.8 99660 46
2011-07-18 07:59:02 51°17.369 2°52.116 17.2 359 14.8 99660 46
2011-07-18 07:59:08 51°17.351 2°52.132 7.2 355 14.8 99670 47
2011-07-18 07:59:12 51°17.338 2°52.142 17.9 359 14.8 99670 47
2011-07-18 07:59:16 51°17.325 2°52.149 16.1 358 14.7 99660 46
2011-07-18 07:59:22 51°17.307 2°52.165 7.3 355 14.7 99660 46
2011-07-18 07:59:28 51°17.287 2°52.176 15.7 358 14.7 99650 47
2011-07-18 07:59:32 51°17.274 2°52.185 16.6 358 14.7 99650 47
2011-07-18 07:59:36 51°17.263 2°52.195 15.8 358 14.8 99660 47
2011-07-18 07:59:42 51°17.244 2°52.209 15.3 -999 14.8 99660 47
2011-07-18 07:59:48 51°17.224 2°52.221 16.2 358 14.8 99670 47
2011-07-18 07:59:52 51°17.212 2°52.231 16.7 357 14.8 99670 47
2011-07-18 07:59:57 51°17.196 2°52.241 13.8 359 14.8 99660 47
2011-07-18 08:00:03 51°17.177 2°52.256 6.9 357 14.8 99660 47
2011-07-18 08:00:07 51°17.165 2°52.263 15 359 14.8 99670 46
2011-07-18 08:00:12 51°17.149 2°52.275 15.5 359 14.8 99670 46
2011-07-18 08:00:16 51°17.136 2°52.284 13.1 1 14.8 99660 46
2011-07-18 08:00:22 51°17.117 2°52.295 7 355 14.8 99660 46
2011-07-18 08:00:28 51°17.099 2°52.311 7.7 357 14.8 99660 46
2011-07-18 08:00:32 51°17.086 2°52.318 13.3 358 14.8 99660 46
2011-07-18 08:00:36 51°17.075 2°52.33 16.2 354 14.8 99670 47
2011-07-18 08:00:42 51°17.055 2°52.342 14.6 353 14.8 99670 47
2011-07-18 08:00:48 51°17.037 2°52.358 8.2 357 14.8 99660 47
2011-07-18 08:00:52 51°17.024 2°52.364 15.3 358 14.8 99660 47
2011-07-18 08:00:56 51°17.013 2°52.375 4.4 357 14.9 99650 47
2011-07-18 08:01:02 51°16.994 2°52.388 16.5 355 14.9 99650 47
2011-07-18 08:01:08 51°16.975 2°52.401 7.9 355 14.8 99650 46
2011-07-18 08:01:12 51°16.963 2°52.41 5.7 355 14.8 99650 46
2011-07-18 08:01:16 51°16.951 2°52.421 11.7 358 14.8 99650 45
2011-07-18 08:01:22 51°16.932 2°52.431 16.8 352 14.8 99650 45
2011-07-18 08:01:28 51°16.914 2°52.447 15.7 356 14.8 99650 46
2011-07-18 08:01:32 51°16.901 2°52.455 15.6 356 14.8 99650 46
2011-07-18 08:01:36 51°16.89 2°52.467 17.8 2 14.8 99650 46
2011-07-18 08:01:42 51°16.87 2°52.479 18.1 -999 14.8 99650 46
2011-07-18 08:01:48 51°16.852 2°52.493 17.9 359 14.8 99650 46
2011-07-18 08:01:52 51°16.84 2°52.502 15.5 353 14.8 99650 46
2011-07-18 08:01:56 51°16.827 2°52.514 11 356 14.8 99650 47
2011-07-18 08:02:02 51°16.808 2°52.525 15.4 354 14.8 99650 47
2011-07-18 08:02:07 51°16.794 2°52.54 17.3 358 14.8 99640 46
2011-07-18 08:02:12 51°16.777 2°52.549 17.3 355 14.8 99640 46
2011-07-18 08:02:16 51°16.765 2°52.56 15.3 356 14.8 99650 46
2011-07-18 08:02:22 51°16.746 2°52.572 14.5 354 14.8 99650 46
2011-07-18 08:02:28 51°16.728 2°52.586 17.5 353 14.8 99660 46
2011-07-18 08:02:32 51°16.715 2°52.593 8.4 351 14.8 99660 46
2011-07-18 08:02:36 51°16.703 2°52.604 19.5 358 14.8 99650 46
2011-07-18 08:02:42 51°16.683 2°52.614 8.9 355 14.8 99650 46
2011-07-18 08:02:48 51°16.664 2°52.627 12.5 356 14.8 99640 46
2011-07-18 08:02:52 51°16.651 2°52.636 6.1 354 14.8 99640 46
2011-07-18 08:02:56 51°16.638 2°52.644 17.2 357 14.9 99660 46
2011-07-18 08:03:02 51°16.62 2°52.657 2.6 359 14.9 99660 46
2011-07-18 08:03:08 51°16.6 2°52.669 12.5 2 14.9 99660 46
2011-07-18 08:03:12 51°16.587 2°52.677 8.4 359 14.9 99660 46
2011-07-18 08:03:16 51°16.575 2°52.687 8.5 -999 14.9 99640 46
2011-07-18 08:03:22 51°16.555 2°52.698 20.4 359 14.9 99640 46
2011-07-18 08:03:28 51°16.536 2°52.709 15 359 14.9 99640 46
2011-07-18 08:03:32 51°16.523 2°52.717 8.6 356 14.9 99640 46
2011-07-18 08:03:36 51°16.511 2°52.727 8.6 359 14.9 99640 46
2011-07-18 08:03:42 51°16.491 2°52.734 8.1 356 14.9 99640 46
2011-07-18 08:03:48 51°16.472 2°52.749 5.5 357 15 99650 46
2011-07-18 08:03:52 51°16.458 2°52.755 4.1 359 15 99650 46
2011-07-18 08:03:56 51°16.446 2°52.765 14.2 358 15 99660 45
2011-07-18 08:04:02 51°16.427 2°52.776 18 357 15 99660 45
2011-07-18 08:04:07 51°16.411 2°52.788 7.5 360 15 99650 46
2011-07-18 08:04:12 51°16.395 2°52.796 8.6 355 15 99650 46
2011-07-18 08:04:16 51°16.383 2°52.806 4.2 358 15.1 99660 46
2011-07-18 08:04:22 51°16.363 2°52.815 20 357 15.1 99660 46
2011-07-18 08:04:27 51°16.348 2°52.828 7.8 356 15.1 99650 46
2011-07-18 08:04:32 51°16.332 2°52.837 16.4 357 15.1 99650 46
2011-07-18 08:04:36 51°16.32 2°52.847 15.8 354 15.1 99650 46
2011-07-18 08:04:42 51°16.301 2°52.86 8.8 357 15.1 99650 46
2011-07-18 08:04:48 51°16.281 2°52.872 13 356 15.1 99650 45
2011-07-18 08:04:52 51°16.269 2°52.882 9.3 357 15.1 99650 45
2011-07-18 08:04:56 51°16.257 2°52.89 18.9 359 15.1 99640 45
2011-07-18 08:05:02 51°16.237 2°52.903 6 1 15.1 99640 45
2011-07-18 08:05:08 51°16.218 2°52.916 4.8 359 15.1 99650 45
2011-07-18 08:05:12 51°16.206 2°52.925 15 359 15.1 99650 45
2011-07-18 08:05:18 51°16.187 2°52.937 8.8 359 15.1 99640 46
2011-07-18 08:05:22 51°16.174 2°52.945 5.5 358 15.1 99640 46
2011-07-18 08:05:28 51°16.155 2°52.959 18.6 354 15.1 99640 46
2011-07-18 08:05:32 51°16.142 2°52.967 15.7 356 15.1 99640 46
2011-07-18 08:05:36 51°16.13 2°52.975 21 356 15.1 99640 45
2011-07-18 08:05:42 51°16.111 2°52.987 6.2 356 15.1 99640 45
2011-07-18 08:05:48 51°16.092 2°53.001 17.2 356 15.1 99640 45
2011-07-18 08:05:52 51°16.08 2°53.009 15 360 15.1 99640 45
2011-07-18 08:05:56 51°16.067 2°53.017 13.8 356 15.1 99650 45
2011-07-18 08:06:03 51°16.046 2°53.034 11.4 354 15.1 99650 45
2011-07-18 08:06:08 51°16.029 2°53.045 5.6 358 15.1 99650 45
2011-07-18 08:06:12 51°16.017 2°53.052 17.3 353 15.1 99650 45
2011-07-18 08:06:16 51°16.004 2°53.063 9.1 -999 15.2 99650 46
2011-07-18 08:06:22 51°15.985 2°53.074 8.6 355 15.2 99650 46
2011-07-18 08:06:27 51°15.97 2°53.086 9.1 356 15.2 99670 46
2011-07-18 08:06:32 51°15.954 2°53.095 8.1 356 15.2 99670 46
2011-07-18 08:06:36 51°15.941 2°53.104 8.9 355 15.2 99650 44
2011-07-18 08:06:42 51°15.922 2°53.115 3.5 355 15.2 99650 44
2011-07-18 08:06:48 51°15.903 2°53.13 18.8 2 15.2 99640 45
2011-07-18 08:06:52 51°15.89 2°53.134 17.2 358 15.2 99640 45
2011-07-18 08:06:56 51°15.878 2°53.145 6.2 356 15.2 99650 45
2011-07-18 08:07:02 51°15.858 2°53.156 15.8 354 15.2 99650 45
2011-07-18 08:07:08 51°15.84 2°53.168 2.7 356 15.2 99650 45
2011-07-18 08:07:12 51°15.827 2°53.176 6 358 15.2 99650 45
2011-07-18 08:07:16 51°15.814 2°53.184 20 356 15.2 99630 45
2011-07-18 08:07:22 51°15.795 2°53.196 17.8 358 15.2 99630 45
2011-07-18 08:07:28 51°15.777 2°53.21 16 -999 15.2 99650 45
2011-07-18 08:07:32 51°15.764 2°53.217 9 -999 15.2 99650 45
2011-07-18 08:07:36 51°15.752 2°53.228 7.8 2 15.2 99640 45
2011-07-18 08:07:42 51°15.733 2°53.24 7.3 355 15.2 99640 45
2011-07-18 08:07:48 51°15.715 2°53.254 12.4 360 15.2 99640 44
2011-07-18 08:07:52 51°15.702 2°53.262 14.1 1 15.2 99640 44
2011-07-18 08:07:56 51°15.69 2°53.273 16.8 356 15.2 99660 45
2011-07-18 08:08:02 51°15.671 2°53.286 7.7 -999 15.2 99660 45
2011-07-18 08:08:08 51°15.652 2°53.301 5.6 358 15.2 99660 45
2011-07-18 08:08:12 51°15.64 2°53.311 15 1 15.2 99660 45
2011-07-18 08:08:16 51°15.627 2°53.318 16.3 358 15.3 99670 46
2011-07-18 08:08:22 51°15.61 2°53.336 5.7 359 15.3 99670 46
2011-07-18 08:08:28 51°15.59 2°53.347 14.5 357 15.3 99660 45
2011-07-18 08:08:32 51°15.579 2°53.358 19.4 359 15.3 99660 45
2011-07-18 08:08:36 51°15.566 2°53.367 15.6 359 15.3 99660 44
2011-07-18 08:08:42 51°15.548 2°53.383 15.1 359 15.3 99660 44
2011-07-18 08:08:48 51°15.531 2°53.397 15.1 1 15.3 99660 45
2011-07-18 08:08:52 51°15.519 2°53.408 12.8 359 15.3 99660 45
2011-07-18 08:08:56 51°15.507 2°53.42 4.9 -999 15.3 99660 44
2011-07-18 08:09:02 51°15.489 2°53.434 17.4 358 15.3 99660 44
2011-07-18 08:09:08 51°15.471 2°53.451 8.3 -999 15.3 99660 45
2011-07-18 08:09:12 51°15.459 2°53.46 17 360 15.3 99660 45
2011-07-18 08:09:16 51°15.447 2°53.472 19 3 15.3 99670 43
2011-07-18 08:09:22 51°15.429 2°53.485 17.7 356 15.3 99670 43
2011-07-18 08:09:28 51°15.41 2°53.499 7.9 -999 15.3 99660 45
2011-07-18 08:09:32 51°15.398 2°53.509 5 3 15.3 99660 45
2011-07-18 08:09:36 51°15.386 2°53.517 15.2 357 15.3 99650 45
2011-07-18 08:09:42 51°15.367 2°53.53 15 359 15.3 99650 45
2011-07-18 08:09:48 51°15.348 2°53.543 5.5 355 15.3 99660 45
2011-07-18 08:09:52 51°15.335 2°53.549 6.9 356 15.3 99660 45
2011-07-18 08:09:58 51°15.316 2°53.56 19.2 352 15.3 99660 45
2011-07-18 08:10:02 51°15.303 2°53.568 13.7 354 15.3 99660 45
2011-07-18 08:10:08 51°15.283 2°53.575 15.7 353 15.3 99650 44
2011-07-18 08:10:12 51°15.271 2°53.584 7.9 356 15.3 99650 44
2011-07-18 08:10:16 51°15.258 2°53.589 12.6 354 15.4 99660 45
2011-07-18 08:10:22 51°15.239 2°53.6 19.8 279 15.4 99660 45
2011-07-18 08:10:28 51°15.218 2°53.608 13.4 353 15.4 99660 45
2011-07-18 08:10:32 51°15.205 2°53.614 13.5 351 15.4 99660 45
2011-07-18 08:10:36 51°15.192 2°53.62 5.4 354 15.4 99670 45
2011-07-18 08:10:42 51°15.173 2°53.628 14.4 352 15.4 99670 45
2011-07-18 08:10:48 51°15.153 2°53.636 8.1 351 15.3 99680 45
2011-07-18 08:10:52 51°15.14 2°53.643 14.7 355 15.3 99680 45
2011-07-18 08:10:56 51°15.126 2°53.645 17.5 353 15.4 99670 45
2011-07-18 08:11:02 51°15.106 2°53.656 15.6 350 15.4 99670 45
2011-07-18 08:11:07 51°15.09 2°53.662 14.5 354 15.3 99670 45
2011-07-18 08:11:12 51°15.073 2°53.669 14.9 349 15.3 99670 45
2011-07-18 08:11:16 51°15.06 2°53.675 9.3 354 15.3 99660 45
2011-07-18 08:11:22 51°15.04 2°53.683 16.6 354 15.3 99660 45
2011-07-18 08:11:28 51°15.019 2°53.693 4.4 350 15.4 99670 45
2011-07-18 08:11:32 51°15.006 2°53.696 18.5 352 15.4 99670 45
2011-07-18 08:11:36 51°14.993 2°53.702 5.5 354 15.4 99680 45
2011-07-18 08:11:42 51°14.973 2°53.711 8.1 348 15.4 99680 45
2011-07-18 08:11:48 51°14.953 2°53.718 17.3 354 15.3 99660 44
2011-07-18 08:11:52 51°14.94 2°53.725 12.8 351 15.3 99660 44
2011-07-18 08:11:58 51°14.92 2°53.733 16.5 347 15.3 99670 43
2011-07-18 08:12:02 51°14.907 2°53.738 8.3 355 15.3 99670 43
2011-07-18 08:12:08 51°14.887 2°53.743 18.7 350 15.3 99680 44
2011-07-18 08:12:12 51°14.874 2°53.748 4.8 351 15.3 99680 44
2011-07-18 08:12:16 51°14.86 2°53.75 1.9 351 15.3 99660 44
2011-07-18 08:12:22 51°14.84 2°53.754 0.9 353 15.3 99660 44
2011-07-18 08:12:28 51°14.819 2°53.758 2.2 349 15.3 99670 45
2011-07-18 08:12:32 51°14.805 2°53.76 8.8 352 15.3 99670 45
2011-07-18 08:12:36 51°14.792 2°53.762 19.1 350 15.3 99670 45
2011-07-18 08:12:43 51°14.768 2°53.766 16.5 349 15.3 99670 45
2011-07-18 08:12:48 51°14.751 2°53.768 8.9 351 15.3 99670 44
2011-07-18 08:12:52 51°14.737 2°53.769 18.9 346 15.3 99670 44
2011-07-18 08:12:56 51°14.723 2°53.771 11.5 347 15.3 99670 45
2011-07-18 08:13:02 51°14.703 2°53.774 5 283 15.3 99670 45
2011-07-18 08:13:08 51°14.681 2°53.775 19.8 349 15.3 99680 45
2011-07-18 08:13:12 51°14.668 2°53.777 6.3 347 15.3 99680 45
2011-07-18 08:13:16 51°14.654 2°53.781 12 349 15.4 99690 45
2011-07-18 08:13:22 51°14.633 2°53.781 12 352 15.4 99690 45
2011-07-18 08:13:28 51°14.613 2°53.781 15.7 349 15.3 99690 45
2011-07-18 08:13:32 51°14.599 2°53.783 22.5 348 15.3 99690 45
2011-07-18 08:13:36 51°14.585 2°53.781 8.9 346 15.3 99690 44
2011-07-18 08:13:42 51°14.563 2°53.78 9.2 281 15.3 99690 44
2011-07-18 08:13:48 51°14.543 2°53.775 17.1 348 15.3 99680 44
2011-07-18 08:13:52 51°14.529 2°53.772 20.7 345 15.3 99680 44
2011-07-18 08:13:56 51°14.515 2°53.768 7.6 343 15.3 99680 44
2011-07-18 08:14:02 51°14.494 2°53.76 9.5 343 15.3 99680 44
2011-07-18 08:14:08 51°14.473 2°53.752 6.1 343 15.3 99680 44
2011-07-18 08:14:12 51°14.459 2°53.744 19.2 284 15.3 99680 44
2011-07-18 08:14:18 51°14.439 2°53.733 17.7 341 15.4 99680 45
2011-07-18 08:14:22 51°14.426 2°53.725 8.8 341 15.4 99680 45
2011-07-18 08:14:28 51°14.406 2°53.712 9.6 339 15.4 99700 45
2011-07-18 08:14:32 51°14.393 2°53.701 6 339 15.4 99700 45
2011-07-18 08:14:36 51°14.38 2°53.691 2.6 339 15.4 99690 43
2011-07-18 08:14:42 51°14.361 2°53.673 6.2 336 15.4 99690 43
2011-07-18 08:14:48 51°14.343 2°53.654 9.2 334 15.4 99680 44
2011-07-18 08:14:52 51°14.331 2°53.64 8.9 334 15.4 99680 44
2011-07-18 08:14:56 51°14.319 2°53.626 6.2 335 15.3 99680 44
2011-07-18 08:15:02 51°14.302 2°53.604 9.3 281 15.3 99680 44
2011-07-18 08:15:08 51°14.285 2°53.582 9.7 332 15.3 99700 44
2011-07-18 08:15:12 51°14.275 2°53.565 7.8 331 15.3 99700 44
2011-07-18 08:15:16 51°14.264 2°53.549 4.7 331 15.4 99700 44
2011-07-18 08:15:22 51°14.249 2°53.523 8.8 280 15.4 99700 44
2011-07-18 08:15:28 51°14.235 2°53.496 9.2 328 15.4 99700 44
2011-07-18 08:15:32 51°14.226 2°53.477 9.8 327 15.4 99700 44
2011-07-18 08:15:36 51°14.217 2°53.458 5.3 325 15.4 99710 45
2011-07-18 08:15:42 51°14.205 2°53.429 13.5 283 15.4 99710 45
2011-07-18 08:15:48 51°14.193 2°53.399 9 323 15.4 99700 44
2011-07-18 08:15:52 51°14.185 2°53.379 6.9 324 15.4 99700 44
2011-07-18 08:15:56 51°14.178 2°53.359 18.7 325 15.4 99690 44
2011-07-18 08:16:02 51°14.166 2°53.329 8.7 325 15.4 99690 44
2011-07-18 08:16:08 51°14.155 2°53.298 8.2 326 15.4 99670 44
2011-07-18 08:16:12 51°14.148 2°53.278 9.8 285 15.4 99670 44
2011-07-18 08:16:16 51°14.141 2°53.258 20.2 326 15.4 99680 44
2011-07-18 08:16:22 51°14.13 2°53.227 8.7 304 15.4 99680 44
2011-07-18 08:16:28 51°14.118 2°53.197 16.7 327 15.4 99680 44
2011-07-18 08:16:32 51°14.111 2°53.177 4.6 304 15.4 99680 44
2011-07-18 08:16:38 51°14.099 2°53.148 8.6 326 15.4 99680 44
2011-07-18 08:16:42 51°14.091 2°53.127 17.6 324 15.4 99680 44
2011-07-18 08:16:48 51°14.08 2°53.098 7.8 327 15.4 99690 44
2011-07-18 08:16:52 51°14.072 2°53.078 16.4 306 15.4 99690 44
2011-07-18 08:16:56 51°14.064 2°53.059 7 326 15.4 99680 44
2011-07-18 08:17:02 51°14.052 2°53.03 10.3 306 15.4 99680 44
2011-07-18 08:17:08 51°14.04 2°53 4.4 328 15.4 99710 44
2011-07-18 08:17:12 51°14.031 2°52.981 9.5 325 15.4 99710 44
2011-07-18 08:17:16 51°14.023 2°52.961 4.8 325 15.4 99690 43
2011-07-18 08:17:22 51°14.011 2°52.933 6.3 282 15.4 99690 43
2011-07-18 08:17:28 51°13.998 2°52.904 5.4 326 15.4 99700 44
2011-07-18 08:17:32 51°13.989 2°52.885 20.3 326 15.4 99700 44
2011-07-18 08:17:36 51°13.981 2°52.866 5.9 327 15.4 99680 44
2011-07-18 08:17:42 51°13.968 2°52.837 4.5 281 15.4 99680 44
2011-07-18 08:17:47 51°13.958 2°52.813 4.5 325 15.4 99670 44
2011-07-18 08:17:52 51°13.947 2°52.789 9 327 15.4 99670 44
2011-07-18 08:17:56 51°13.939 2°52.77 4.6 327 15.4 99680 44
2011-07-18 08:18:02 51°13.926 2°52.741 9 328 15.4 99680 44
2011-07-18 08:18:08 51°13.913 2°52.712 17.3 328 15.3 99700 44
2011-07-18 08:18:12 51°13.905 2°52.693 8.6 329 15.3 99700 44
2011-07-18 08:18:16 51°13.896 2°52.674 8.7 330 15.4 99690 44